Time;durP1;ratioP1;P1;durP2;ratioP2;P2;SDS_P1;SDS_P2;PMS_P1;PMS_P2;Temp;Humidity;BMP_temperature;BMP_pressure;BME280_temperature;BME280_humidity;BME280_pressure;Samples;Min_cycle;Max_cycle;Signal;HPM_P1;HPM_P2
2022/10/24 00:00:43;;;;;;;30.60;14.30;;;;;;;;;;4917758;29;20040;-73
2022/10/24 00:03:09;;;;;;;30.05;13.95;;;;;;;;;;4918284;29;20099;-73
2022/10/24 00:05:36;;;;;;;39.70;15.35;;;;;;;;;;4917992;29;20040;-73
2022/10/24 00:08:02;;;;;;;36.10;15.30;;;;;;;;;;4918423;29;20491;-73
2022/10/24 00:10:28;;;;;;;32.95;15.73;;;;;;;;;;4917829;29;20052;-73
2022/10/24 00:12:54;;;;;;;38.95;15.93;;;;;;;;;;4917864;29;20491;-73
2022/10/24 00:15:20;;;;;;;34.22;14.52;;;;;;;;;;4917808;29;20036;-73
2022/10/24 00:17:46;;;;;;;35.25;14.77;;;;;;;;;;4917890;29;20036;-73
2022/10/24 00:20:13;;;;;;;33.83;15.25;;;;;;;;;;4917710;29;20051;-73
2022/10/24 00:22:39;;;;;;;32.42;14.77;;;;;;;;;;4919593;29;20407;-73
2022/10/24 00:25:05;;;;;;;26.58;14.63;;;;;;;;;;4921228;29;20050;-73
2022/10/24 00:27:31;;;;;;;31.70;14.23;;;;;;;;;;4921352;29;20044;-73
2022/10/24 00:29:57;;;;;;;35.63;14.68;;;;;;;;;;4921115;29;20053;-73
2022/10/24 00:32:23;;;;;;;36.05;14.48;;;;;;;;;;4921223;29;20055;-73
2022/10/24 00:34:49;;;;;;;40.47;15.23;;;;;;;;;;4921115;29;20412;-73
2022/10/24 00:37:16;;;;;;;28.95;13.98;;;;;;;;;;4921469;29;20032;-73
2022/10/24 00:39:42;;;;;;;30.80;14.88;;;;;;;;;;4920867;29;20052;-73
2022/10/24 00:42:08;;;;;;;26.95;13.18;;;;;;;;;;4920943;29;20408;-73
2022/10/24 00:44:37;;;;;;;31.55;13.25;;;;;;;;;;4920733;29;20040;-73
2022/10/24 00:47:06;;;;;;;31.38;13.45;;;;;;;;;;4921263;29;20035;-73
2022/10/24 00:49:49;;;;;;;33.53;13.43;;;;;;;;;;4920973;29;20052;-73
2022/10/24 00:52:17;;;;;;;33.70;15.13;;;;;;;;;;4920560;29;20055;-73
2022/10/24 00:54:44;;;;;;;32.67;13.10;;;;;;;;;;4920907;29;20044;-73
2022/10/24 00:57:25;;;;;;;30.88;13.18;;;;;;;;;;4921345;29;20127;-73
2022/10/24 00:59:55;;;;;;;35.63;12.90;;;;;;;;;;4921061;29;20067;-73
2022/10/24 01:02:21;;;;;;;29.38;12.60;;;;;;;;;;4920630;29;20052;-73
2022/10/24 01:04:47;;;;;;;39.50;13.48;;;;;;;;;;4920423;29;20040;-73
2022/10/24 01:07:19;;;;;;;26.60;12.70;;;;;;;;;;4920934;29;20040;-73
2022/10/24 01:10:04;;;;;;;31.00;13.98;;;;;;;;;;4920532;29;20044;-73
2022/10/24 01:12:44;;;;;;;33.50;13.25;;;;;;;;;;4921029;29;20496;-73
2022/10/24 01:15:19;;;;;;;28.83;13.38;;;;;;;;;;4920651;29;20044;-73
2022/10/24 01:17:56;;;;;;;31.52;12.65;;;;;;;;;;4920487;29;20051;-73
2022/10/24 01:20:31;;;;;;;37.75;13.60;;;;;;;;;;4920550;29;20514;-73
2022/10/24 01:23:12;;;;;;;30.98;13.50;;;;;;;;;;4920681;29;20048;-73
2022/10/24 01:25:46;;;;;;;34.88;13.88;;;;;;;;;;4920280;29;20055;-73
2022/10/24 01:28:20;;;;;;;29.67;12.60;;;;;;;;;;4920075;29;20541;-73
2022/10/24 01:31:01;;;;;;;33.13;12.60;;;;;;;;;;4920572;29;20044;-73
2022/10/24 01:33:31;;;;;;;31.00;13.60;;;;;;;;;;4920218;29;20539;-73
2022/10/24 01:36:05;;;;;;;37.40;13.90;;;;;;;;;;4920516;29;20052;-73
2022/10/24 01:38:40;;;;;;;31.48;14.13;;;;;;;;;;4920369;29;20040;-73
2022/10/24 01:41:09;;;;;;;34.75;13.68;;;;;;;;;;4919880;29;20060;-73
2022/10/24 01:43:36;;;;;;;24.63;13.30;;;;;;;;;;4920590;29;20055;-73
2022/10/24 01:46:04;;;;;;;38.38;13.88;;;;;;;;;;4920437;29;20058;-73
2022/10/24 01:48:33;;;;;;;28.85;14.00;;;;;;;;;;4920480;29;20040;-73
2022/10/24 01:51:00;;;;;;;33.28;14.63;;;;;;;;;;4920176;29;20103;-72
2022/10/24 01:53:28;;;;;;;29.27;13.85;;;;;;;;;;4920556;29;20048;-73
2022/10/24 01:55:54;;;;;;;36.05;13.30;;;;;;;;;;4920038;29;20092;-73
2022/10/24 01:58:20;;;;;;;32.00;13.88;;;;;;;;;;4920207;29;20074;-73
2022/10/24 02:00:47;;;;;;;31.48;13.32;;;;;;;;;;4920413;29;20090;-73
2022/10/24 02:03:31;;;;;;;30.17;13.23;;;;;;;;;;4919949;29;20059;-73
2022/10/24 02:06:03;;;;;;;32.90;14.27;;;;;;;;;;4920391;29;20353;-73
2022/10/24 02:08:32;;;;;;;34.42;13.02;;;;;;;;;;4918711;29;20399;-73
2022/10/24 02:11:00;;;;;;;33.92;13.82;;;;;;;;;;4919593;29;20123;-73
2022/10/24 02:13:35;;;;;;;30.73;13.75;;;;;;;;;;4920178;29;20050;-73
2022/10/24 02:16:02;;;;;;;31.60;13.07;;;;;;;;;;4920313;29;20047;-73
2022/10/24 02:18:29;;;;;;;35.20;15.18;;;;;;;;;;4919728;29;20070;-73
2022/10/24 02:20:58;;;;;;;39.05;14.75;;;;;;;;;;4919281;29;20036;-73
2022/10/24 02:23:43;;;;;;;32.45;14.65;;;;;;;;;;4920069;29;20055;-73
2022/10/24 02:26:12;;;;;;;30.30;13.98;;;;;;;;;;4919382;29;20040;-72
2022/10/24 02:28:40;;;;;;;31.95;14.02;;;;;;;;;;4919249;29;20470;-73
2022/10/24 02:31:09;;;;;;;26.30;13.38;;;;;;;;;;4919476;29;20051;-73
2022/10/24 02:33:37;;;;;;;31.30;13.65;;;;;;;;;;4919302;29;20131;-73
2022/10/24 02:36:04;;;;;;;30.67;14.25;;;;;;;;;;4919376;29;20044;-73
2022/10/24 02:38:32;;;;;;;36.28;14.13;;;;;;;;;;4919521;29;20431;-73
2022/10/24 02:41:01;;;;;;;31.33;14.90;;;;;;;;;;4919192;29;20059;-73
2022/10/24 02:43:27;;;;;;;27.85;14.32;;;;;;;;;;4919027;29;20048;-73
2022/10/24 02:45:54;;;;;;;39.33;15.20;;;;;;;;;;4918645;29;20103;-73
2022/10/24 02:48:22;;;;;;;31.17;15.18;;;;;;;;;;4919453;29;20044;-73
2022/10/24 02:50:49;;;;;;;39.00;14.60;;;;;;;;;;4919145;29;20054;-73
2022/10/24 02:53:19;;;;;;;35.15;14.50;;;;;;;;;;4918737;29;20044;-73
2022/10/24 02:55:45;;;;;;;26.48;14.02;;;;;;;;;;4918830;29;20107;-73
2022/10/24 02:58:12;;;;;;;36.92;13.82;;;;;;;;;;4918996;29;20075;-73
2022/10/24 03:00:38;;;;;;;36.50;14.23;;;;;;;;;;4918944;29;20218;-73
2022/10/24 03:03:04;;;;;;;36.88;14.77;;;;;;;;;;4918928;29;20048;-73
2022/10/24 03:05:30;;;;;;;30.25;13.68;;;;;;;;;;4918620;29;20066;-73
2022/10/24 03:07:56;;;;;;;31.85;13.95;;;;;;;;;;4918570;29;20043;-73
2022/10/24 03:10:22;;;;;;;27.08;14.15;;;;;;;;;;4918766;29;20044;-73
2022/10/24 03:12:48;;;;;;;30.33;13.93;;;;;;;;;;4919305;29;20048;-73
2022/10/24 03:15:15;;;;;;;33.70;14.82;;;;;;;;;;4918752;29;20051;-73
2022/10/24 03:17:41;;;;;;;33.38;14.30;;;;;;;;;;4918489;29;20044;-73
2022/10/24 03:20:08;;;;;;;35.92;14.50;;;;;;;;;;4918272;29;20123;-73
2022/10/24 03:22:34;;;;;;;39.72;14.95;;;;;;;;;;4918896;29;20510;-73
2022/10/24 03:25:02;;;;;;;36.38;14.00;;;;;;;;;;4917908;29;20440;-73
2022/10/24 03:27:28;;;;;;;33.63;14.30;;;;;;;;;;4918309;29;20084;-73
2022/10/24 03:29:54;;;;;;;37.83;14.23;;;;;;;;;;4918511;29;20036;-73
2022/10/24 03:32:21;;;;;;;29.25;14.20;;;;;;;;;;4917970;29;20044;-73
2022/10/24 03:34:47;;;;;;;31.27;15.57;;;;;;;;;;4918017;29;20036;-73
2022/10/24 03:37:13;;;;;;;33.35;14.70;;;;;;;;;;4918767;29;20068;-73
2022/10/24 03:39:40;;;;;;;32.35;14.18;;;;;;;;;;4917971;29;20083;-73
2022/10/24 03:42:06;;;;;;;34.63;14.05;;;;;;;;;;4917750;29;20056;-73
2022/10/24 03:44:32;;;;;;;36.58;14.32;;;;;;;;;;4917917;29;20044;-73
2022/10/24 03:46:58;;;;;;;33.90;14.10;;;;;;;;;;4918167;29;20047;-73
2022/10/24 03:49:24;;;;;;;32.30;14.35;;;;;;;;;;4918269;29;20036;-73
2022/10/24 03:51:50;;;;;;;34.25;14.73;;;;;;;;;;4917826;29;20040;-73
2022/10/24 03:54:16;;;;;;;28.88;13.88;;;;;;;;;;4918162;29;20099;-73
2022/10/24 03:56:43;;;;;;;32.00;14.88;;;;;;;;;;4918436;29;20143;-73
2022/10/24 03:59:10;;;;;;;39.70;14.27;;;;;;;;;;4922118;29;20048;-73
2022/10/24 04:01:36;;;;;;;39.03;15.43;;;;;;;;;;4922100;29;20115;-73
2022/10/24 04:04:03;;;;;;;35.95;15.63;;;;;;;;;;4922038;29;20048;-73
2022/10/24 04:06:29;;;;;;;36.08;15.40;;;;;;;;;;4921486;29;20060;-73
2022/10/24 04:08:55;;;;;;;41.88;15.05;;;;;;;;;;4921743;29;20044;-73
2022/10/24 04:11:22;;;;;;;42.85;15.70;;;;;;;;;;4921547;29;20063;-73
2022/10/24 04:13:48;;;;;;;32.63;14.70;;;;;;;;;;4921744;29;20566;-73
2022/10/24 04:16:14;;;;;;;40.35;14.57;;;;;;;;;;4921296;29;20055;-73
2022/10/24 04:18:40;;;;;;;35.50;15.00;;;;;;;;;;4921829;29;20043;-73
2022/10/24 04:21:06;;;;;;;37.33;14.93;;;;;;;;;;4921529;29;20055;-73
2022/10/24 04:23:37;;;;;;;31.60;14.80;;;;;;;;;;4921423;29;20134;-73
2022/10/24 04:26:03;;;;;;;29.65;14.35;;;;;;;;;;4921001;29;20044;-73
2022/10/24 04:28:29;;;;;;;32.78;15.23;;;;;;;;;;4921154;29;20504;-73
2022/10/24 04:30:56;;;;;;;32.85;14.85;;;;;;;;;;4921319;29;20051;-73
2022/10/24 04:33:22;;;;;;;44.60;16.70;;;;;;;;;;4920875;29;20040;-73
2022/10/24 04:35:49;;;;;;;42.00;16.70;;;;;;;;;;4920963;29;20082;-73
2022/10/24 04:38:15;;;;;;;41.90;16.38;;;;;;;;;;4921467;29;20040;-73
2022/10/24 04:40:45;;;;;;;34.10;16.20;;;;;;;;;;4920789;29;20440;-73
2022/10/24 04:43:11;;;;;;;42.20;17.58;;;;;;;;;;4921050;29;20131;-73
2022/10/24 04:45:37;;;;;;;43.45;17.05;;;;;;;;;;4921069;29;20048;-73
2022/10/24 04:48:03;;;;;;;45.40;18.13;;;;;;;;;;4921868;29;20040;-73
2022/10/24 04:50:29;;;;;;;36.95;17.25;;;;;;;;;;4921073;29;20052;-73
2022/10/24 04:52:55;;;;;;;30.77;16.42;;;;;;;;;;4921195;29;20072;-73
2022/10/24 04:55:21;;;;;;;36.95;16.25;;;;;;;;;;4921053;29;20048;-73
2022/10/24 04:57:48;;;;;;;43.47;17.20;;;;;;;;;;4920857;29;20044;-73
2022/10/24 05:00:14;;;;;;;42.83;16.67;;;;;;;;;;4920972;29;20052;-73
2022/10/24 05:02:40;;;;;;;36.08;15.55;;;;;;;;;;4921065;29;20055;-73
2022/10/24 05:05:06;;;;;;;34.20;14.40;;;;;;;;;;4921158;29;20051;-73
2022/10/24 05:07:32;;;;;;;26.83;13.35;;;;;;;;;;4920526;29;20048;-72
2022/10/24 05:09:59;;;;;;;30.48;13.13;;;;;;;;;;4920949;29;20046;-72
2022/10/24 05:12:25;;;;;;;33.05;11.95;;;;;;;;;;4920868;29;20507;-73
2022/10/24 05:14:51;;;;;;;32.80;12.48;;;;;;;;;;4920863;29;20123;-73
2022/10/24 05:17:17;;;;;;;31.77;11.88;;;;;;;;;;4920844;29;20068;-73
2022/10/24 05:19:43;;;;;;;33.88;11.82;;;;;;;;;;4920821;29;20111;-73
2022/10/24 05:22:09;;;;;;;32.55;12.50;;;;;;;;;;4920727;29;20036;-72
2022/10/24 05:24:35;;;;;;;25.45;11.25;;;;;;;;;;4920650;29;20040;-73
2022/10/24 05:27:01;;;;;;;38.58;13.23;;;;;;;;;;4920621;29;20040;-73
2022/10/24 05:29:27;;;;;;;30.80;12.95;;;;;;;;;;4921014;29;20046;-73
2022/10/24 05:31:54;;;;;;;29.40;13.15;;;;;;;;;;4921016;29;20566;-73
2022/10/24 05:34:20;;;;;;;32.38;12.98;;;;;;;;;;4920324;29;20048;-73
2022/10/24 05:36:46;;;;;;;32.38;13.90;;;;;;;;;;4920485;29;20102;-73
2022/10/24 05:39:12;;;;;;;32.08;14.05;;;;;;;;;;4920482;29;20052;-72
2022/10/24 05:41:38;;;;;;;35.83;13.85;;;;;;;;;;4920433;29;20086;-73
2022/10/24 05:44:04;;;;;;;34.35;15.43;;;;;;;;;;4920027;29;20044;-73
2022/10/24 05:46:30;;;;;;;30.52;15.10;;;;;;;;;;4920311;29;20048;-73
2022/10/24 05:48:56;;;;;;;26.67;14.10;;;;;;;;;;4920712;29;20118;-73
2022/10/24 05:51:22;;;;;;;35.03;14.15;;;;;;;;;;4920159;29;20059;-72
2022/10/24 05:53:49;;;;;;;31.08;12.38;;;;;;;;;;4920472;29;20039;-73
2022/10/24 05:56:15;;;;;;;32.00;13.15;;;;;;;;;;4919690;29;20526;-73
2022/10/24 05:58:41;;;;;;;33.78;12.30;;;;;;;;;;4920288;29;20095;-72
2022/10/24 06:01:07;;;;;;;31.23;11.52;;;;;;;;;;4920010;29;20044;-72
2022/10/24 06:03:33;;;;;;;25.50;10.60;;;;;;;;;;4919642;29;20044;-72
2022/10/24 06:06:03;;;;;;;28.92;10.45;;;;;;;;;;4919930;29;20048;-73
2022/10/24 06:08:29;;;;;;;22.83;10.10;;;;;;;;;;4920657;29;20066;-72
2022/10/24 06:10:55;;;;;;;23.23;10.25;;;;;;;;;;4919389;29;20044;-73
2022/10/24 06:13:21;;;;;;;23.67;8.93;;;;;;;;;;4919434;29;20048;-73
2022/10/24 06:15:47;;;;;;;32.88;10.73;;;;;;;;;;4919566;29;20048;-73
2022/10/24 06:18:13;;;;;;;28.73;9.25;;;;;;;;;;4919169;29;20064;-73
2022/10/24 06:20:39;;;;;;;30.95;9.32;;;;;;;;;;4917863;29;20450;-73
2022/10/24 06:23:05;;;;;;;20.90;8.43;;;;;;;;;;4919598;29;20095;-72
2022/10/24 06:25:32;;;;;;;24.73;8.93;;;;;;;;;;4919373;29;20047;-73
2022/10/24 06:27:58;;;;;;;25.05;9.30;;;;;;;;;;4919500;29;20075;-73
2022/10/24 06:30:24;;;;;;;29.10;9.65;;;;;;;;;;4919591;29;20127;-73
2022/10/24 06:32:50;;;;;;;25.05;9.40;;;;;;;;;;4919647;29;20133;-73
2022/10/24 06:35:17;;;;;;;29.92;9.27;;;;;;;;;;4919212;29;20078;-73
2022/10/24 06:37:44;;;;;;;24.70;10.20;;;;;;;;;;4919763;29;20040;-72
2022/10/24 06:40:10;;;;;;;31.10;11.20;;;;;;;;;;4918883;29;20542;-73
2022/10/24 06:42:36;;;;;;;26.63;9.75;;;;;;;;;;4920058;29;20044;-73
2022/10/24 06:45:02;;;;;;;26.92;11.10;;;;;;;;;;4919195;29;20075;-73
2022/10/24 06:47:28;;;;;;;27.90;10.10;;;;;;;;;;4919189;29;20043;-73
2022/10/24 06:49:54;;;;;;;33.00;10.15;;;;;;;;;;4919353;29;20567;-73
2022/10/24 06:52:20;;;;;;;22.95;8.73;;;;;;;;;;4919319;29;20080;-73
2022/10/24 06:54:48;;;;;;;30.02;9.00;;;;;;;;;;4918659;29;20138;-73
2022/10/24 06:57:14;;;;;;;30.02;8.95;;;;;;;;;;4918755;29;20111;-73
2022/10/24 06:59:40;;;;;;;25.13;8.98;;;;;;;;;;4919005;29;20050;-73
2022/10/24 07:02:06;;;;;;;23.38;7.85;;;;;;;;;;4918970;29;20047;-73
2022/10/24 07:04:32;;;;;;;28.67;9.95;;;;;;;;;;4918645;29;20056;-73
2022/10/24 07:06:58;;;;;;;30.33;8.82;;;;;;;;;;4918951;29;20075;-73
2022/10/24 07:09:25;;;;;;;31.10;8.30;;;;;;;;;;4919043;29;20044;-73
2022/10/24 07:11:51;;;;;;;31.10;9.95;;;;;;;;;;4918791;29;20032;-73
2022/10/24 07:14:17;;;;;;;27.38;9.15;;;;;;;;;;4919016;29;20103;-73
2022/10/24 07:16:44;;;;;;;24.98;8.57;;;;;;;;;;4919292;29;20052;-73
2022/10/24 07:19:10;;;;;;;25.90;8.90;;;;;;;;;;4918202;29;20060;-73
2022/10/24 07:21:36;;;;;;;21.85;7.88;;;;;;;;;;4918977;29;20040;-73
2022/10/24 07:24:02;;;;;;;19.80;8.10;;;;;;;;;;4918516;29;20056;-73
2022/10/24 07:26:29;;;;;;;23.67;7.70;;;;;;;;;;4918646;29;20032;-73
2022/10/24 07:28:57;;;;;;;23.55;8.43;;;;;;;;;;4918414;29;20123;-73
2022/10/24 07:31:25;;;;;;;27.92;9.18;;;;;;;;;;4918393;29;20051;-73
2022/10/24 07:33:52;;;;;;;23.17;8.18;;;;;;;;;;4918498;29;20044;-73
2022/10/24 07:36:19;;;;;;;21.70;8.32;;;;;;;;;;4918565;29;20519;-73
2022/10/24 07:38:46;;;;;;;28.10;7.95;;;;;;;;;;4918512;29;20051;-73
2022/10/24 07:41:12;;;;;;;24.67;8.38;;;;;;;;;;4918349;29;20082;-72
2022/10/24 07:43:38;;;;;;;25.77;9.45;;;;;;;;;;4918414;29;20055;-73
2022/10/24 07:46:06;;;;;;;29.67;8.82;;;;;;;;;;4918295;29;20052;-73
2022/10/24 07:48:32;;;;;;;19.80;7.50;;;;;;;;;;4918880;29;20044;-73
2022/10/24 07:50:58;;;;;;;25.60;9.98;;;;;;;;;;4918869;29;20045;-73
2022/10/24 07:53:26;;;;;;;25.73;9.52;;;;;;;;;;4918502;29;20062;-73
2022/10/24 07:55:53;;;;;;;26.20;8.35;;;;;;;;;;4917927;29;20040;-72
2022/10/24 07:58:19;;;;;;;20.33;8.68;;;;;;;;;;4917533;29;20096;-73
2022/10/24 08:00:46;;;;;;;22.80;8.45;;;;;;;;;;4918301;29;20044;-73
2022/10/24 08:03:12;;;;;;;25.25;8.98;;;;;;;;;;4917765;29;20123;-73
2022/10/24 08:05:41;;;;;;;21.60;8.50;;;;;;;;;;4917663;29;20036;-73
2022/10/24 08:08:07;;;;;;;25.83;8.63;;;;;;;;;;4918020;29;20498;-73
2022/10/24 08:10:33;;;;;;;24.88;8.98;;;;;;;;;;4918065;29;20035;-73
2022/10/24 08:12:59;;;;;;;26.48;9.10;;;;;;;;;;4917915;29;20047;-73
2022/10/24 08:15:26;;;;;;;29.60;9.02;;;;;;;;;;4917674;29;20135;-73
2022/10/24 08:17:55;;;;;;;23.63;8.18;;;;;;;;;;4917880;29;20044;-73
2022/10/24 08:20:25;;;;;;;27.92;7.55;;;;;;;;;;4917301;29;20068;-73
2022/10/24 08:22:51;;;;;;;23.90;7.47;;;;;;;;;;4917523;29;20452;-73
2022/10/24 08:25:17;;;;;;;21.80;8.35;;;;;;;;;;4917653;29;20055;-73
2022/10/24 08:27:44;;;;;;;20.20;7.80;;;;;;;;;;4917836;29;20044;-73
2022/10/24 08:30:10;;;;;;;22.92;7.32;;;;;;;;;;4917956;29;20055;-73
2022/10/24 08:32:37;;;;;;;25.75;7.60;;;;;;;;;;4918247;29;20044;-73
2022/10/24 08:35:04;;;;;;;20.60;8.20;;;;;;;;;;4917774;29;20082;-73
2022/10/24 08:37:30;;;;;;;30.88;8.85;;;;;;;;;;4917958;29;20059;-73
2022/10/24 08:39:56;;;;;;;31.70;9.65;;;;;;;;;;4917565;29;20059;-73
2022/10/24 08:42:24;;;;;;;30.98;8.25;;;;;;;;;;4917323;29;20040;-73
2022/10/24 08:44:51;;;;;;;29.02;8.90;;;;;;;;;;4920715;29;20507;-73
2022/10/24 08:47:56;;;;;;;27.67;9.50;;;;;;;;;;4921056;29;20043;-73
2022/10/24 08:50:22;;;;;;;27.60;9.20;;;;;;;;;;4881006;29;20076;-73
2022/10/24 08:52:58;;;;;;;27.92;9.10;;;;;;;;;;4880874;29;20544;-73
2022/10/24 08:55:27;;;;;;;27.23;9.60;;;;;;;;;;4902103;29;20072;-73
2022/10/24 08:57:57;;;;;;;23.58;9.10;;;;;;;;;;4920623;29;20048;-73
2022/10/24 09:00:25;;;;;;;27.27;9.77;;;;;;;;;;4920966;29;20056;-73
2022/10/24 09:02:55;;;;;;;31.20;11.10;;;;;;;;;;4920806;29;20044;-73
2022/10/24 09:05:25;;;;;;;33.47;9.50;;;;;;;;;;4920537;29;20043;-73
2022/10/24 09:07:54;;;;;;;28.85;9.65;;;;;;;;;;4920897;29;20048;-73
2022/10/24 09:10:24;;;;;;;35.80;10.70;;;;;;;;;;4919927;29;20511;-73
2022/10/24 09:12:50;;;;;;;23.52;9.20;;;;;;;;;;4920517;29;20048;-73
2022/10/24 09:15:28;;;;;;;25.40;9.55;;;;;;;;;;4920584;29;20072;-73
2022/10/24 09:17:56;;;;;;;33.40;10.00;;;;;;;;;;4920307;29;20103;-73
2022/10/24 09:20:24;;;;;;;29.52;9.77;;;;;;;;;;4920588;29;20060;-73
2022/10/24 09:22:52;;;;;;;29.60;10.18;;;;;;;;;;4921251;29;20044;-73
2022/10/24 09:25:21;;;;;;;38.45;9.30;;;;;;;;;;4920233;29;20044;-73
2022/10/24 09:27:47;;;;;;;24.30;9.05;;;;;;;;;;4920633;29;20051;-73
2022/10/24 09:30:18;;;;;;;29.55;9.55;;;;;;;;;;4920197;29;20044;-73
2022/10/24 09:32:44;;;;;;;;;;;;;;;;;;4920653;29;20052;-73
2022/10/24 09:35:20;;;;;;;28.63;9.60;;;;;;;;;;4919981;29;19915;-72
2022/10/24 09:37:48;;;;;;;29.98;10.38;;;;;;;;;;4919882;29;20043;-73
2022/10/24 09:40:19;;;;;;;25.75;8.40;;;;;;;;;;4919317;29;20119;-73
2022/10/24 09:42:45;;;;;;;;;;;;;;;;;;4919347;29;20373;-73
2022/10/24 09:45:19;;;;;;;28.90;9.10;;;;;;;;;;4919185;29;19935;-73
2022/10/24 09:47:45;;;;;;;20.80;8.13;;;;;;;;;;4919028;29;20040;-73
2022/10/24 09:50:21;;;;;;;25.33;8.02;;;;;;;;;;4919171;29;20044;-73
2022/10/24 09:52:48;;;;;;;22.75;8.60;;;;;;;;;;4919079;29;20048;-73
2022/10/24 09:55:17;;;;;;;25.70;8.07;;;;;;;;;;4918723;29;20095;-73
2022/10/24 09:57:43;;;;;;;30.38;9.25;;;;;;;;;;4918624;29;20059;-73
2022/10/24 10:00:41;;;;;;;27.48;8.13;;;;;;;;;;4918703;29;20099;-73
2022/10/24 10:03:19;;;;;;;20.65;8.40;;;;;;;;;;4897232;29;20151;-72
2022/10/24 10:06:00;;;;;;;24.38;7.47;;;;;;;;;;4918946;29;20079;-73
2022/10/24 10:08:26;;;;;;;;;;;;;;;;;;4919742;29;20055;-72
2022/10/24 10:10:57;;;;;;;34.03;8.45;;;;;;;;;;4918526;29;20399;-73
2022/10/24 10:13:24;;;;;;;30.70;8.20;;;;;;;;;;4918749;29;20044;-73
2022/10/24 10:16:00;;;;;;;31.00;8.48;;;;;;;;;;4918565;29;20492;-73
2022/10/24 10:18:29;;;;;;;28.67;8.27;;;;;;;;;;4918895;29;20119;-73
2022/10/24 10:21:00;;;;;;;23.92;8.50;;;;;;;;;;4918221;29;20032;-73
2022/10/24 10:23:26;;;;;;;23.80;7.75;;;;;;;;;;4918263;29;20458;-73
2022/10/24 10:26:06;;;;;;;23.45;8.60;;;;;;;;;;4918347;29;20281;-73
2022/10/24 10:28:34;;;;;;;22.25;7.80;;;;;;;;;;4917888;29;20089;-73
2022/10/24 10:31:01;;;;;;;18.85;7.60;;;;;;;;;;4918561;29;20130;-73
2022/10/24 10:33:35;;;;;;;23.35;7.93;;;;;;;;;;4918309;29;20048;-73
2022/10/24 10:36:09;;;;;;;19.45;6.93;;;;;;;;;;4917801;29;20048;-73
2022/10/24 10:39:04;;;;;;;21.77;7.78;;;;;;;;;;4917993;29;20047;-73
2022/10/24 10:41:42;;;;;;;19.95;6.57;;;;;;;;;;4874202;29;1306010;-73
2022/10/24 10:44:10;;;;;;;18.27;5.82;;;;;;;;;;4919408;29;20040;-73
2022/10/24 10:46:43;;;;;;;14.63;4.85;;;;;;;;;;4919002;29;20107;-73
2022/10/24 10:49:12;;;;;;;13.57;4.20;;;;;;;;;;4918990;29;20116;-73
2022/10/24 10:51:51;;;;;;;12.15;4.85;;;;;;;;;;4919152;29;20068;-73
2022/10/24 10:54:23;;;;;;;13.30;4.80;;;;;;;;;;4918274;29;20415;-73
2022/10/24 10:57:06;;;;;;;17.63;5.15;;;;;;;;;;4918602;29;20048;-73
2022/10/24 10:59:48;;;;;;;12.82;4.60;;;;;;;;;;4918959;29;20039;-73
2022/10/24 11:02:33;;;;;;;13.93;5.03;;;;;;;;;;4918623;29;20075;-73
2022/10/24 11:05:18;;;;;;;18.10;4.78;;;;;;;;;;4918534;29;20504;-73
2022/10/24 11:07:48;;;;;;;11.88;4.22;;;;;;;;;;4918431;29;20488;-73
2022/10/24 11:10:20;;;;;;;14.15;4.55;;;;;;;;;;4918183;29;20392;-73
2022/10/24 11:12:46;;;;;;;14.48;4.57;;;;;;;;;;4918531;29;20083;-73
2022/10/24 11:15:30;;;;;;;13.50;4.50;;;;;;;;;;4918339;29;20582;-72
2022/10/24 11:17:59;;;;;;;11.70;4.00;;;;;;;;;;4918489;29;20095;-73
2022/10/24 11:20:46;;;;;;;16.33;4.78;;;;;;;;;;4918549;29;20044;-73
2022/10/24 11:23:22;;;;;;;14.98;4.80;;;;;;;;;;4911220;29;20105;-73
2022/10/24 11:25:52;;;;;;;9.27;3.60;;;;;;;;;;4918169;29;20515;-73
2022/10/24 11:28:23;;;;;;;13.18;3.92;;;;;;;;;;4918167;29;20107;-73
2022/10/24 11:30:53;;;;;;;11.23;4.55;;;;;;;;;;4918351;29;20044;-73
2022/10/24 11:33:28;;;;;;;15.32;3.90;;;;;;;;;;4918602;29;20055;-73
2022/10/24 11:36:06;;;;;;;11.88;3.88;;;;;;;;;;4918864;29;20123;-73
2022/10/24 11:38:35;;;;;;;11.80;4.50;;;;;;;;;;4917992;29;20053;-73
2022/10/24 11:41:21;;;;;;;11.38;3.63;;;;;;;;;;4917768;29;20056;-73
2022/10/24 11:43:48;;;;;;;12.60;3.75;;;;;;;;;;4918668;29;20058;-73
2022/10/24 11:46:19;;;;;;;12.63;3.63;;;;;;;;;;4918132;29;20123;-73
2022/10/24 11:48:45;;;;;;;;;;;;;;;;;;4918815;29;20048;-73
2022/10/24 11:51:20;;;;;;;9.20;3.72;;;;;;;;;;4918434;29;19911;-73
2022/10/24 11:53:49;;;;;;;15.02;3.80;;;;;;;;;;4918310;29;20127;-73
2022/10/24 11:56:30;;;;;;;10.52;3.95;;;;;;;;;;4917906;29;20123;-73
2022/10/24 11:59:00;;;;;;;15.90;4.03;;;;;;;;;;4918761;29;20119;-73
2022/10/24 12:01:26;;;;;;;17.48;4.30;;;;;;;;;;4918111;29;20503;-73
2022/10/24 12:04:11;;;;;;;8.52;3.25;;;;;;;;;;4918308;29;20174;-73
2022/10/24 12:06:37;;;;;;;11.85;3.80;;;;;;;;;;4918560;29;20051;-73
2022/10/24 12:09:22;;;;;;;12.85;4.07;;;;;;;;;;4918188;29;20040;-73
2022/10/24 12:11:51;;;;;;;10.50;3.53;;;;;;;;;;4918011;29;20522;-73
2022/10/24 12:14:36;;;;;;;13.98;3.90;;;;;;;;;;4918178;29;20048;-73
2022/10/24 12:17:05;;;;;;;19.30;4.50;;;;;;;;;;4918485;29;20396;-73
2022/10/24 12:19:31;;;;;;;9.43;3.92;;;;;;;;;;4921099;29;20040;-73
2022/10/24 12:21:58;;;;;;;11.65;3.92;;;;;;;;;;4921564;29;20051;-73
2022/10/24 12:24:30;;;;;;;13.40;3.22;;;;;;;;;;4921604;29;20131;-73
2022/10/24 12:27:01;;;;;;;14.60;3.95;;;;;;;;;;4921517;29;20416;-73
2022/10/24 12:29:30;;;;;;;18.10;4.10;;;;;;;;;;4922123;29;20043;-73
2022/10/24 12:31:57;;;;;;;16.58;3.90;;;;;;;;;;4921633;29;20555;-73
2022/10/24 12:34:23;;;;;;;12.75;4.32;;;;;;;;;;4921287;29;20141;-73
2022/10/24 12:37:13;;;;;;;12.98;3.60;;;;;;;;;;4921722;29;20118;-73
2022/10/24 12:39:46;;;;;;;13.52;4.50;;;;;;;;;;4921133;29;20503;-73
2022/10/24 12:42:13;;;;;;;11.40;3.45;;;;;;;;;;4921608;29;20115;-73
2022/10/24 12:44:41;;;;;;;13.90;3.55;;;;;;;;;;4921179;29;20526;-73
2022/10/24 12:47:26;;;;;;;13.48;3.80;;;;;;;;;;4921390;29;20043;-73
2022/10/24 12:49:52;;;;;;;11.93;3.65;;;;;;;;;;4921520;29;20040;-73
2022/10/24 12:52:30;;;;;;;11.38;3.22;;;;;;;;;;4921349;29;20044;-72
2022/10/24 12:54:57;;;;;;;6.30;2.40;;;;;;;;;;4920799;29;20052;-73
2022/10/24 12:57:28;;;;;;;9.27;2.85;;;;;;;;;;4920952;29;20072;-73
2022/10/24 12:59:56;;;;;;;9.93;2.83;;;;;;;;;;4921146;29;20098;-73
2022/10/24 13:02:33;;;;;;;9.63;2.53;;;;;;;;;;4921172;29;20119;-72
2022/10/24 13:05:08;;;;;;;8.55;2.50;;;;;;;;;;4921230;29;20511;-73
2022/10/24 13:07:53;;;;;;;7.68;2.50;;;;;;;;;;4921590;29;20091;-73
2022/10/24 13:10:36;;;;;;;5.38;1.98;;;;;;;;;;4920397;29;20385;-73
2022/10/24 13:13:02;;;;;;;8.10;2.42;;;;;;;;;;4921472;29;20129;-73
2022/10/24 13:15:36;;;;;;;8.00;2.80;;;;;;;;;;4921227;29;20076;-73
2022/10/24 13:18:22;;;;;;;8.95;2.83;;;;;;;;;;4920603;29;20040;-73
2022/10/24 13:20:49;;;;;;;9.73;2.30;;;;;;;;;;4921080;29;20056;-73
2022/10/24 13:23:26;;;;;;;6.82;2.35;;;;;;;;;;4920397;29;20040;-73
2022/10/24 13:25:56;;;;;;;6.38;2.45;;;;;;;;;;4920740;29;20572;-73
2022/10/24 13:28:22;;;;;;;8.55;2.50;;;;;;;;;;4920234;29;20523;-73
2022/10/24 13:30:52;;;;;;;12.43;3.00;;;;;;;;;;4920504;29;20138;-72
2022/10/24 13:33:35;;;;;;;9.55;2.42;;;;;;;;;;4920486;29;20040;-73
2022/10/24 13:36:28;;;;;;;7.88;3.03;;;;;;;;;;4920810;29;20141;-73
2022/10/24 13:38:59;;;;;;;9.02;2.70;;;;;;;;;;4920981;29;20044;-73
2022/10/24 13:41:31;;;;;;;8.23;2.72;;;;;;;;;;4920542;29;20135;-73
2022/10/24 13:44:02;;;;;;;5.07;2.20;;;;;;;;;;4920732;29;20071;-73
2022/10/24 13:46:35;;;;;;;14.25;2.53;;;;;;;;;;4920356;29;20068;-73
2022/10/24 13:49:02;;;;;;;8.73;2.50;;;;;;;;;;4919747;29;20036;-73
2022/10/24 13:51:31;;;;;;;7.95;2.40;;;;;;;;;;4920253;29;20499;-73
2022/10/24 13:54:03;;;;;;;8.20;2.33;;;;;;;;;;4920511;29;20048;-73
2022/10/24 13:56:31;;;;;;;8.38;2.10;;;;;;;;;;4919986;29;20056;-73
2022/10/24 13:58:57;;;;;;;6.57;2.38;;;;;;;;;;4920169;29;20480;-73
2022/10/24 14:01:25;;;;;;;8.25;2.72;;;;;;;;;;4920032;29;20047;-73
2022/10/24 14:03:52;;;;;;;12.40;2.40;;;;;;;;;;4919722;29;20412;-73
2022/10/24 14:06:26;;;;;;;9.30;2.30;;;;;;;;;;4919939;29;20039;-73
2022/10/24 14:08:54;;;;;;;8.23;2.25;;;;;;;;;;4920376;29;20052;-73
2022/10/24 14:11:24;;;;;;;6.80;2.60;;;;;;;;;;4919414;29;20031;-73
2022/10/24 14:13:51;;;;;;;9.02;2.42;;;;;;;;;;4919560;29;20460;-73
2022/10/24 14:16:23;;;;;;;9.02;2.55;;;;;;;;;;4920033;29;20064;-73
2022/10/24 14:18:49;;;;;;;11.38;3.10;;;;;;;;;;4919639;29;20128;-73
2022/10/24 14:21:20;;;;;;;8.57;2.50;;;;;;;;;;4919248;29;20409;-73
2022/10/24 14:24:01;;;;;;;13.93;2.10;;;;;;;;;;4920121;29;20051;-73
2022/10/24 14:26:27;;;;;;;;;;;;;;;;;;4920249;29;20123;-73
2022/10/24 14:28:57;;;;;;;9.02;2.58;;;;;;;;;;4920244;29;19954;-73
2022/10/24 14:31:33;;;;;;;6.75;1.60;;;;;;;;;;4919328;29;20503;-73
2022/10/24 14:34:00;;;;;;;3.40;2.17;;;;;;;;;;4919909;29;20039;-73
2022/10/24 14:36:30;;;;;;;7.55;1.65;;;;;;;;;;4919427;29;20040;-73
2022/10/24 14:38:58;;;;;;;6.07;1.90;;;;;;;;;;4920018;29;20044;-73